Time;durP1;ratioP1;P1;durP2;ratioP2;P2;SDS_P1;SDS_P2;PMS_P1;PMS_P2;Temp;Humidity;BMP_temperature;BMP_pressure;BME280_temperature;BME280_humidity;BME280_pressure;Samples;Min_cycle;Max_cycle;Signal;HPM_P1;HPM_P2
2022/02/14 00:01:25;;;;;;;;;;;;;;;1.03;64.23;95906.13;4979622;28;19966;-76
2022/02/14 00:03:51;;;;;;;;;;;;;;;1.05;64.02;95901.59;4982058;28;20024;-76
2022/02/14 00:06:17;;;;;;;;;;;;;;;1.07;63.96;95896.22;4969371;28;20326;-77
2022/02/14 00:08:44;;;;;;;;;;;;;;;1.06;63.72;95894.63;4985938;28;19960;-77
2022/02/14 00:11:11;;;;;;;;;;;;;;;1.07;63.79;95903.97;4981291;28;19952;-77
2022/02/14 00:13:37;;;;;;;;;;;;;;;1.06;63.82;95900.59;4984260;28;19954;-77
2022/02/14 00:16:03;;;;;;;;;;;;;;;1.04;63.75;95891.44;4988064;28;20431;-76
2022/02/14 00:18:29;;;;;;;;;;;;;;;1.00;63.94;95885.78;4961188;28;20456;-77
2022/02/14 00:20:55;;;;;;;;;;;;;;;0.98;63.92;95885.16;4981372;28;19958;-77
2022/02/14 00:23:20;;;;;;;;;;;;;;;0.96;63.79;95881.94;4986633;28;19991;-76
2022/02/14 00:25:46;;;;;;;;;;;;;;;0.94;64.03;95887.28;4983315;28;20342;-76
2022/02/14 00:28:12;;;;;;;;;;;;;;;0.91;63.90;95874.72;4986330;28;19958;-77
2022/02/14 00:30:38;;;;;;;;;;;;;;;0.90;64.24;95877.47;4984887;28;19953;-76
2022/02/14 00:33:04;;;;;;;;;;;;;;;0.89;64.01;95868.91;4981783;28;20294;-76
2022/02/14 00:35:30;;;;;;;;;;;;;;;0.89;64.01;95873.28;4986995;28;19967;-76
2022/02/14 00:37:56;;;;;;;;;;;;;;;0.88;64.25;95862.13;4984213;28;20418;-77
2022/02/14 00:40:22;;;;;;;;;;;;;;;0.89;63.89;95858.59;4964304;28;19997;-76
2022/02/14 00:42:48;;;;;;;;;;;;;;;0.90;63.98;95861.97;4979170;28;19957;-78
2022/02/14 00:45:15;;;;;;;;;;;;;;;0.88;64.42;95862.13;4985461;28;19959;-76
2022/02/14 00:47:41;;;;;;;;;;;;;;;0.88;63.95;95854.41;4987738;28;19959;-77
2022/02/14 00:50:08;;;;;;;;;;;;;;;0.89;63.99;95856.00;4979582;28;19949;-77
2022/02/14 00:52:34;;;;;;;;;;;;;;;0.88;63.84;95851.81;4982615;28;19963;-77
2022/02/14 00:55:00;;;;;;;;;;;;;;;0.90;64.12;95849.88;4990118;28;19998;-77
2022/02/14 00:57:27;;;;;;;;;;;;;;;0.90;63.99;95842.13;4980473;28;19981;-76
2022/02/14 00:59:53;;;;;;;;;;;;;;;0.91;63.96;95842.94;4979593;28;19965;-77
2022/02/14 01:02:19;;;;;;;;;;;;;;;0.92;63.76;95835.00;4989279;28;19962;-77
2022/02/14 01:04:45;;;;;;;;;;;;;;;0.94;63.97;95840.00;4979103;28;19952;-77
2022/02/14 01:07:10;;;;;;;;;;;;;;;0.96;63.62;95835.47;4984536;28;19985;-77
2022/02/14 01:09:36;;;;;;;;;;;;;;;0.98;64.01;95839.47;4983225;28;20008;-78
2022/02/14 01:12:03;;;;;;;;;;;;;;;1.00;63.50;95832.38;4987745;28;20002;-76
2022/02/14 01:14:29;;;;;;;;;;;;;;;1.01;63.16;95830.63;4979458;28;20311;-77
2022/02/14 01:16:57;;;;;;;;;;;;;;;1.02;63.40;95829.63;4985211;28;20057;-77
2022/02/14 01:19:23;;;;;;;;;;;;;;;1.07;63.67;95827.34;4965111;28;19966;-77
2022/02/14 01:21:49;;;;;;;;;;;;;;;1.09;62.99;95819.41;4984015;28;19955;-78
2022/02/14 01:24:15;;;;;;;;;;;;;;;1.10;63.19;95819.22;4987541;28;20584;-77
2022/02/14 01:26:42;;;;;;;;;;;;;;;1.11;63.08;95815.66;4989361;28;19991;-76
2022/02/14 01:29:08;;;;;;;;;;;;;;;1.15;63.00;95811.75;4988820;28;20486;-77
2022/02/14 01:31:34;;;;;;;;;;;;;;;1.15;63.40;95808.38;4982825;28;20414;-76
2022/02/14 01:34:00;;;;;;;;;;;;;;;1.14;63.10;95806.78;4985305;28;19996;-76
2022/02/14 01:36:26;;;;;;;;;;;;;;;1.15;62.25;95800.63;4987153;28;20408;-76
2022/02/14 01:38:52;;;;;;;;;;;;;;;1.15;63.44;95800.63;4992559;28;20064;-76
2022/02/14 01:41:18;;;;;;;;;;;;;;;1.17;62.37;95804.63;4986550;28;20329;-77
2022/02/14 01:43:44;;;;;;;;;;;;;;;1.18;62.28;95795.13;4980914;28;20002;-76
2022/02/14 01:46:10;;;;;;;;;;;;;;;1.18;62.53;95795.13;4953003;28;19958;-76
2022/02/14 01:48:36;;;;;;;;;;;;;;;1.19;62.42;95792.34;4993424;28;19950;-77
2022/02/14 01:51:02;;;;;;;;;;;;;;;1.17;62.84;95796.09;4988833;28;19962;-77
2022/02/14 01:53:28;;;;;;;;;;;;;;;1.17;61.86;95789.13;4982092;28;19957;-77
2022/02/14 01:55:55;;;;;;;;;;;;;;;1.22;61.87;95780.88;4988336;28;19972;-77
2022/02/14 01:58:20;;;;;;;;;;;;;;;1.24;61.13;95784.09;4987271;28;19973;-77
2022/02/14 02:00:48;;;;;;;;;;;;;;;1.26;61.42;95776.16;4988853;28;20481;-76
2022/02/14 02:03:14;;;;;;;;;;;;;;;1.29;62.63;95768.88;4985678;28;19955;-77
2022/02/14 02:05:42;;;;;;;;;;;;;;;1.30;61.37;95777.41;4980156;28;20429;-77
2022/02/14 02:08:08;;;;;;;;;;;;;;;1.32;60.27;95768.50;4984062;28;19968;-78
2022/02/14 02:10:36;;;;;;;;;;;;;;;1.34;60.32;95776.09;4974494;28;20399;-77
2022/02/14 02:13:02;;;;;;;;;;;;;;;1.33;60.67;95767.53;4987279;28;19959;-77
2022/02/14 02:15:28;;;;;;;;;;;;;;;1.34;60.22;95758.00;4986594;28;19964;-77
2022/02/14 02:17:54;;;;;;;;;;;;;;;1.35;60.17;95759.63;4985950;28;19969;-77
2022/02/14 02:20:20;;;;;;;;;;;;;;;1.36;59.53;95758.63;4988356;28;20380;-77
2022/02/14 02:22:47;;;;;;;;;;;;;;;1.37;59.48;95745.53;4988154;28;19963;-77
2022/02/14 02:25:14;;;;;;;;;;;;;;;1.38;59.38;95754.88;4981581;28;19953;-76
2022/02/14 02:27:42;;;;;;;;;;;;;;;1.35;59.88;95747.50;4968886;28;19960;-77
2022/02/14 02:30:09;;;;;;;;;;;;;;;1.35;59.11;95747.50;4981974;28;19958;-77
2022/02/14 02:32:35;;;;;;;;;;;;;;;1.36;59.27;95740.53;4983833;28;19951;-78
2022/02/14 02:35:01;;;;;;;;;;;;;;;1.35;59.18;95734.59;4989294;28;19960;-79
2022/02/14 02:37:28;;;;;;;;;;;;;;;1.35;60.69;95742.34;4988042;28;19987;-77
2022/02/14 02:39:54;;;;;;;;;;;;;;;1.35;59.35;95728.63;4982847;28;19958;-77
2022/02/14 02:42:20;;;;;;;;;;;;;;;1.34;59.73;95724.41;4986899;28;19965;-77
2022/02/14 02:44:47;;;;;;;;;;;;;;;1.32;60.56;95724.59;4988754;28;20417;-77
2022/02/14 02:47:14;;;;;;;;;;;;;;;1.30;58.88;95721.41;4982238;28;19978;-77
2022/02/14 02:49:40;;;;;;;;;;;;;;;1.28;58.55;95715.63;4984027;28;19960;-77
2022/02/14 02:52:07;;;;;;;;;;;;;;;1.29;58.18;95714.63;4986685;28;19963;-77
2022/02/14 02:54:34;;;;;;;;;;;;;;;1.30;58.56;95715.41;4987864;28;19978;-78
2022/02/14 02:57:00;;;;;;;;;;;;;;;1.30;58.89;95702.50;4980624;28;20024;-77
2022/02/14 02:59:27;;;;;;;;;;;;;;;1.29;58.65;95706.09;4984556;28;19978;-77
2022/02/14 03:01:53;;;;;;;;;;;;;;;1.29;58.40;95698.34;4986803;28;19956;-77
2022/02/14 03:04:20;;;;;;;;;;;;;;;1.26;59.33;95696.09;4985381;28;19960;-77
2022/02/14 03:06:46;;;;;;;;;;;;;;;1.24;59.23;95695.47;4989958;28;19960;-79
2022/02/14 03:09:13;;;;;;;;;;;;;;;1.20;59.06;95698.41;4986887;28;19965;-77
2022/02/14 03:11:40;;;;;;;;;;;;;;;1.18;57.99;95689.25;4980877;28;19959;-77
2022/02/14 03:14:06;;;;;;;;;;;;;;;1.17;59.07;95693.59;4984976;28;19961;-77
2022/02/14 03:16:32;;;;;;;;;;;;;;;1.17;58.03;95691.00;4986469;28;19951;-77
2022/02/14 03:18:58;;;;;;;;;;;;;;;1.17;57.13;95685.06;4983505;28;19982;-76
2022/02/14 03:21:24;;;;;;;;;;;;;;;1.21;58.94;95686.31;4983153;28;19955;-77
2022/02/14 03:23:51;;;;;;;;;;;;;;;1.20;57.96;95676.97;4987993;28;20473;-77
2022/02/14 03:26:19;;;;;;;;;;;;;;;1.20;58.60;95679.53;4969092;28;20299;-77
2022/02/14 03:28:46;;;;;;;;;;;;;;;1.19;56.97;95681.31;4985831;28;20322;-77
2022/02/14 03:31:12;;;;;;;;;;;;;;;1.19;57.03;95683.09;4984445;28;19959;-76
2022/02/14 03:33:38;;;;;;;;;;;;;;;1.15;57.25;95666.34;4984218;28;19979;-77
2022/02/14 03:36:04;;;;;;;;;;;;;;;1.12;57.46;95674.47;4981228;28;19965;-76
2022/02/14 03:38:30;;;;;;;;;;;;;;;1.08;57.54;95668.84;4984247;28;19972;-77
2022/02/14 03:40:56;;;;;;;;;;;;;;;1.05;57.39;95666.63;4970854;28;19945;-77
2022/02/14 03:43:22;;;;;;;;;;;;;;;1.05;57.72;95666.63;4985644;28;19988;-77
2022/02/14 03:45:48;;;;;;;;;;;;;;;1.06;56.44;95662.25;4984121;28;19958;-77
2022/02/14 03:48:14;;;;;;;;;;;;;;;1.08;56.87;95660.31;4983813;28;19966;-77
2022/02/14 03:50:40;;;;;;;;;;;;;;;1.08;56.99;95652.56;4982713;28;20046;-77
2022/02/14 03:53:06;;;;;;;;;;;;;;;1.07;56.81;95654.34;4989522;28;20001;-77
2022/02/14 03:55:32;;;;;;;;;;;;;;;1.07;57.14;95656.94;4983080;28;19984;-77
2022/02/14 03:57:58;;;;;;;;;;;;;;;1.09;57.29;95651.56;4979788;28;19968;-77
2022/02/14 04:00:24;;;;;;;;;;;;;;;1.08;58.43;95668.06;4983721;28;20011;-77
2022/02/14 04:02:51;;;;;;;;;;;;;;;1.07;57.77;95659.50;4986330;28;19976;-77
2022/02/14 04:05:17;;;;;;;;;;;;;;;1.06;56.28;95644.97;4984995;28;19968;-77
2022/02/14 04:07:44;;;;;;;;;;;;;;;1.06;56.60;95657.09;4985582;28;19955;-77
2022/02/14 04:10:11;;;;;;;;;;;;;;;1.05;57.61;95661.47;4979844;28;20953;-77
2022/02/14 04:12:37;;;;;;;;;;;;;;;1.04;58.14;95659.84;4985867;28;19975;-77
2022/02/14 04:15:04;;;;;;;;;;;;;;;1.01;58.88;95660.22;4986764;28;20422;-77
2022/02/14 04:17:30;;;;;;;;;;;;;;;0.94;56.86;95649.78;4985777;28;19964;-76
2022/02/14 04:19:56;;;;;;;;;;;;;;;0.92;58.27;95649.16;4981911;28;19953;-77
2022/02/14 04:22:22;;;;;;;;;;;;;;;0.90;56.90;95648.53;4982906;28;19985;-76
2022/02/14 04:24:49;;;;;;;;;;;;;;;0.87;56.72;95648.91;4985746;28;20346;-77
2022/02/14 04:27:15;;;;;;;;;;;;;;;0.87;58.00;95643.72;4974212;28;19968;-76
2022/02/14 04:29:41;;;;;;;;;;;;;;;0.86;58.36;95641.31;4986813;28;19960;-77
2022/02/14 04:32:08;;;;;;;;;;;;;;;0.87;58.74;95653.25;4989236;28;19958;-77
2022/02/14 04:34:34;;;;;;;;;;;;;;;0.88;55.27;95644.53;4983896;28;19958;-77
2022/02/14 04:37:00;;;;;;;;;;;;;;;0.91;54.97;95639.81;4980410;28;20330;-77
2022/02/14 04:39:26;;;;;;;;;;;;;;;0.90;58.04;95647.72;4984373;28;19968;-77
2022/02/14 04:41:52;;;;;;;;;;;;;;;0.86;57.81;95643.91;4985587;28;20052;-76
2022/02/14 04:44:18;;;;;;;;;;;;;;;0.83;58.79;95647.63;4985173;28;19955;-76
2022/02/14 04:46:44;;;;;;;;;;;;;;;0.78;58.71;95642.22;4978700;28;20001;-77
2022/02/14 04:49:10;;;;;;;;;;;;;;;0.74;58.96;95644.34;4988327;28;19965;-77
2022/02/14 04:51:36;;;;;;;;;;;;;;;0.71;58.40;95641.31;4981895;28;20304;-76
2022/02/14 04:54:02;;;;;;;;;;;;;;;0.68;57.00;95637.31;4985137;28;19993;-77
2022/02/14 04:56:28;;;;;;;;;;;;;;;0.68;58.01;95639.88;4987535;28;19979;-77
2022/02/14 04:58:54;;;;;;;;;;;;;;;0.67;59.04;95638.25;4986391;28;19977;-77
2022/02/14 05:01:20;;;;;;;;;;;;;;;0.65;59.37;95642.81;4985938;28;19954;-77
2022/02/14 05:03:47;;;;;;;;;;;;;;;0.62;59.42;95647.53;4993240;28;20075;-77
2022/02/14 05:06:12;;;;;;;;;;;;;;;0.59;59.31;95639.16;4989728;28;19981;-76
2022/02/14 05:08:39;;;;;;;;;;;;;;;0.58;59.34;95639.31;4980775;28;20072;-77
2022/02/14 05:11:05;;;;;;;;;;;;;;;0.55;58.89;95631.94;4970098;28;19960;-77
2022/02/14 05:13:31;;;;;;;;;;;;;;;0.54;59.50;95644.03;4986348;28;19959;-77
2022/02/14 05:15:57;;;;;;;;;;;;;;;0.51;56.65;95631.50;4988424;28;19954;-76
2022/02/14 05:18:23;;;;;;;;;;;;;;;0.47;56.94;95627.66;4985511;28;19979;-76
2022/02/14 05:20:49;;;;;;;;;;;;;;;0.46;56.40;95627.81;4984960;28;19967;-77
2022/02/14 05:23:15;;;;;;;;;;;;;;;0.46;56.24;95622.66;4990301;28;19963;-77
2022/02/14 05:25:41;;;;;;;;;;;;;;;0.47;58.99;95630.22;4986450;28;19963;-77
2022/02/14 05:28:07;;;;;;;;;;;;;;;0.47;59.42;95637.97;4989431;28;19990;-77
2022/02/14 05:30:33;;;;;;;;;;;;;;;0.47;56.66;95622.50;4980593;28;19962;-77
2022/02/14 05:33:00;;;;;;;;;;;;;;;0.47;58.28;95624.28;4989025;28;20030;-77
2022/02/14 05:35:25;;;;;;;;;;;;;;;0.46;58.55;95625.25;4993485;28;19961;-77
2022/02/14 05:37:52;;;;;;;;;;;;;;;0.45;58.75;95629.59;4969040;28;20426;-77
2022/02/14 05:40:18;;;;;;;;;;;;;;;0.44;58.67;95630.56;4986704;28;19961;-77
2022/02/14 05:42:44;;;;;;;;;;;;;;;0.43;58.67;95625.59;4987093;28;19950;-76
2022/02/14 05:45:10;;;;;;;;;;;;;;;0.40;59.45;95630.13;4986237;28;19958;-77
2022/02/14 05:47:36;;;;;;;;;;;;;;;0.39;59.48;95638.03;4971406;28;20384;-76
2022/02/14 05:50:03;;;;;;;;;;;;;;;0.38;59.74;95639.03;4987812;28;20306;-77
2022/02/14 05:52:29;;;;;;;;;;;;;;;0.36;56.57;95636.63;4992146;28;19955;-78
2022/02/14 05:54:55;;;;;;;;;;;;;;;0.37;57.76;95635.63;4982484;28;20084;-77
2022/02/14 05:57:22;;;;;;;;;;;;;;;0.42;57.34;95635.13;4989179;28;19993;-77
2022/02/14 05:59:48;;;;;;;;;;;;;;;0.43;58.56;95636.72;4989026;28;20406;-77
2022/02/14 06:02:14;;;;;;;;;;;;;;;0.40;57.73;95635.28;4981743;28;20007;-77
2022/02/14 06:04:40;;;;;;;;;;;;;;;0.38;58.78;95633.88;4968956;28;19962;-76
2022/02/14 06:07:06;;;;;;;;;;;;;;;0.37;59.14;95638.19;4989769;28;19958;-77
2022/02/14 06:09:32;;;;;;;;;;;;;;;0.35;59.66;95641.94;4985761;28;19962;-77
2022/02/14 06:11:59;;;;;;;;;;;;;;;0.35;58.57;95639.38;4984077;28;20290;-76
2022/02/14 06:14:25;;;;;;;;;;;;;;;0.33;59.53;95639.53;4984807;28;19952;-76
2022/02/14 06:16:51;;;;;;;;;;;;;;;0.34;60.13;95650.66;4982018;28;19964;-77
2022/02/14 06:19:17;;;;;;;;;;;;;;;0.33;59.30;95639.53;4989783;28;19985;-77
2022/02/14 06:21:43;;;;;;;;;;;;;;;0.35;58.77;95639.38;4987698;28;19984;-78
2022/02/14 06:24:09;;;;;;;;;;;;;;;0.39;58.64;95648.34;4981368;28;19953;-77
2022/02/14 06:26:35;;;;;;;;;;;;;;;0.40;57.61;95643.03;4985607;28;19968;-77
2022/02/14 06:29:02;;;;;;;;;;;;;;;0.44;56.16;95637.50;4988845;28;19955;-77
2022/02/14 06:31:28;;;;;;;;;;;;;;;0.47;58.91;95643.13;4989424;28;20338;-76
2022/02/14 06:33:55;;;;;;;;;;;;;;;0.48;57.15;95636.97;4979999;28;20414;-76
2022/02/14 06:36:23;;;;;;;;;;;;;;;0.52;56.68;95638.25;4989971;28;19951;-76
2022/02/14 06:38:50;;;;;;;;;;;;;;;0.56;56.30;95638.69;4987216;28;19975;-76
2022/02/14 06:41:16;;;;;;;;;;;;;;;0.61;57.75;95641.56;4987013;28;20003;-77
2022/02/14 06:43:42;;;;;;;;;;;;;;;0.65;57.05;95644.59;4985984;28;19964;-77
2022/02/14 06:46:08;;;;;;;;;;;;;;;0.65;57.45;95642.00;4988446;28;19958;-76
2022/02/14 06:48:34;;;;;;;;;;;;;;;0.68;57.05;95644.25;4984308;28;19957;-77
2022/02/14 06:51:00;;;;;;;;;;;;;;;0.70;58.41;95644.88;4969608;28;20389;-77
2022/02/14 06:53:26;;;;;;;;;;;;;;;0.73;56.37;95644.50;4985499;28;20008;-78
2022/02/14 06:55:52;;;;;;;;;;;;;;;0.74;56.28;95643.53;4990724;28;20007;-77
2022/02/14 06:58:18;;;;;;;;;;;;;;;0.75;56.91;95645.94;4988766;28;19972;-78
2022/02/14 07:00:44;;;;;;;;;;;;;;;0.79;58.52;95648.97;4982197;28;20468;-76
2022/02/14 07:03:10;;;;;;;;;;;;;;;0.82;57.07;95651.22;4979001;28;19966;-77
2022/02/14 07:05:37;;;;;;;;;;;;;;;0.85;56.77;95650.84;4991017;28;19951;-77
2022/02/14 07:08:03;;;;;;;;;;;;;;;0.88;57.88;95655.63;4982443;28;20423;-77
2022/02/14 07:10:29;;;;;;;;;;;;;;;1.01;57.05;95649.91;4983095;28;19963;-77
2022/02/14 07:12:55;;;;;;;;;;;;;;;1.42;56.70;95650.22;4985649;28;19953;-76
2022/02/14 07:15:22;;;;;;;;;;;;;;;1.93;56.13;95648.59;4990554;28;19964;-77
2022/02/14 07:17:51;;;;;;;;;;;;;;;2.44;55.99;95656.25;4978217;28;19954;-77
2022/02/14 07:20:18;;;;;;;;;;;;;;;2.95;55.12;95653.44;4981214;28;19971;-77
2022/02/14 07:22:44;;;;;;;;;;;;;;;3.39;53.84;95648.91;4988719;28;19950;-77
2022/02/14 07:25:11;;;;;;;;;;;;;;;3.84;52.67;95651.88;4967575;28;20432;-77
2022/02/14 07:27:37;;;;;;;;;;;;;;;4.26;50.26;95645.59;4981556;28;19955;-77
2022/02/14 07:30:04;;;;;;;;;;;;;;;4.61;49.44;95635.00;4985022;28;19956;-77
2022/02/14 07:32:30;;;;;;;;;;;;;;;4.91;47.74;95639.78;4970410;28;19974;-77
2022/02/14 07:34:56;;;;;;;;;;;;;;;5.16;47.85;95644.34;4949554;28;20420;-77
2022/02/14 07:37:23;;;;;;;;;;;;;;;5.38;47.08;95644.91;4982917;28;20014;-77
2022/02/14 07:39:49;;;;;;;;;;;;;;;5.58;46.58;95639.63;4982001;28;20346;-77
2022/02/14 07:42:15;;;;;;;;;;;;;;;5.79;47.11;95647.13;4972658;28;19954;-77
2022/02/14 07:44:41;;;;;;;;;;;;;;;6.00;46.01;95640.88;4989956;28;19950;-77
2022/02/14 07:47:07;;;;;;;;;;;;;;;6.24;46.88;95641.94;4984191;28;19952;-77
2022/02/14 07:49:32;;;;;;;;;;;;;;;6.52;45.88;95634.75;4983802;28;19954;-77
2022/02/14 07:51:58;;;;;;;;;;;;;;;6.73;43.62;95631.75;4984146;28;19989;-77
2022/02/14 07:54:24;;;;;;;;;;;;;;;6.96;43.79;95631.16;4985620;28;20006;-76
2022/02/14 07:56:50;;;;;;;;;;;;;;;7.11;42.90;95617.78;4991074;28;20000;-76
2022/02/14 07:59:16;;;;;;;;;;;;;;;7.29;44.65;95620.41;4979036;28;20047;-77
2022/02/14 08:01:42;;;;;;;;;;;;;;;7.50;44.00;95618.38;4982465;28;20420;-79
2022/02/14 08:04:08;;;;;;;;;;;;;;;7.73;45.61;95628.13;4985551;28;19961;-77
2022/02/14 08:06:37;;;;;;;;;;;;;;;7.75;41.45;95620.88;4987343;28;19957;-79
2022/02/14 08:09:04;;;;;;;;;;;;;;;7.69;44.76;95621.78;4988124;28;19959;-77
2022/02/14 08:11:30;;;;;;;;;;;;;;;7.77;42.22;95620.66;4968585;28;19970;-77
2022/02/14 08:13:56;;;;;;;;;;;;;;;7.88;43.80;95622.53;4968506;28;19966;-77
2022/02/14 08:16:22;;;;;;;;;;;;;;;8.00;43.04;95622.56;4979047;28;20405;-78
2022/02/14 08:18:48;;;;;;;;;;;;;;;8.11;42.07;95609.56;4986410;28;19967;-78
2022/02/14 08:21:14;;;;;;;;;;;;;;;8.26;42.63;95610.97;4967212;28;19964;-77
2022/02/14 08:23:40;;;;;;;;;;;;;;;8.35;41.01;95617.44;4980289;28;20360;-77
2022/02/14 08:26:06;;;;;;;;;;;;;;;8.46;42.30;95621.94;4984135;28;20373;-77
2022/02/14 08:28:33;;;;;;;;;;;;;;;8.53;43.85;95608.78;4986919;28;20019;-77
2022/02/14 08:30:59;;;;;;;;;;;;;;;8.23;42.28;95612.22;4981664;28;19966;-77
2022/02/14 08:33:25;;;;;;;;;;;;;;;7.64;40.43;95619.00;4971254;28;19948;-77
2022/02/14 08:35:51;;;;;;;;;;;;;;;7.01;41.70;95618.25;4968462;28;19953;-77
2022/02/14 08:38:19;;;;;;;;;;;;;;;6.55;44.17;95624.72;4980218;28;20470;-77
2022/02/14 08:40:45;;;;;;;;;;;;;;;6.28;44.44;95617.06;4985407;28;19957;-77
2022/02/14 08:43:11;;;;;;;;;;;;;;;6.17;45.66;95625.53;4984176;28;19955;-77
2022/02/14 08:45:36;;;;;;;;;;;;;;;6.35;46.31;95626.66;4983066;28;19962;-77
2022/02/14 08:48:03;;;;;;;;;;;;;;;6.68;45.00;95616.00;4985087;28;19971;-77
2022/02/14 08:50:31;;;;;;;;;;;;;;;6.81;44.50;95609.84;4983330;28;19964;-77
2022/02/14 08:53:00;;;;;;;;;;;;;;;7.00;44.68;95614.06;4980993;28;19964;-77
2022/02/14 08:55:27;;;;;;;;;;;;;;;7.45;45.05;95613.78;4960834;28;20371;-77
2022/02/14 08:57:54;;;;;;;;;;;;;;;7.94;44.68;95613.81;4984734;28;19952;-77
2022/02/14 09:00:20;;;;;;;;;;;;;;;8.33;42.97;95606.44;4984786;28;19977;-77
2022/02/14 09:02:46;;;;;;;;;;;;;;;8.34;43.06;95600.97;4982211;28;19962;-77
2022/02/14 09:05:12;;;;;;;;;;;;;;;8.26;42.32;95600.50;4981580;28;19962;-77
2022/02/14 09:07:38;;;;;;;;;;;;;;;8.23;41.35;95593.94;4984272;28;19954;-77
2022/02/14 09:10:05;;;;;;;;;;;;;;;8.37;40.44;95597.13;4979882;28;20022;-77
2022/02/14 09:12:31;;;;;;;;;;;;;;;8.47;42.02;95604.44;4984315;28;19964;-77
2022/02/14 09:14:58;;;;;;;;;;;;;;;8.41;41.77;95602.72;4985831;28;19968;-77
2022/02/14 09:17:25;;;;;;;;;;;;;;;8.45;41.24;95599.44;4981887;28;19949;-77
2022/02/14 09:19:51;;;;;;;;;;;;;;;8.52;42.42;95589.69;4982645;28;19977;-77
2022/02/14 09:22:17;;;;;;;;;;;;;;;8.69;42.03;95589.00;4982347;28;19954;-77
2022/02/14 09:24:43;;;;;;;;;;;;;;;8.68;42.88;95596.06;4982820;28;19977;-77
2022/02/14 09:27:10;;;;;;;;;;;;;;;8.57;42.86;95599.47;4982541;28;20423;-77
2022/02/14 09:29:37;;;;;;;;;;;;;;;8.65;41.72;95595.72;4984719;28;19958;-78
2022/02/14 09:32:03;;;;;;;;;;;;;;;8.45;40.37;95589.00;4981374;28;19980;-77
2022/02/14 09:34:29;;;;;;;;;;;;;;;8.27;42.45;95591.66;4987198;28;19958;-77
2022/02/14 09:36:56;;;;;;;;;;;;;;;8.10;41.64;95588.88;4988272;28;19967;-77
2022/02/14 09:39:22;;;;;;;;;;;;;;;8.04;42.40;95590.59;4976324;28;19981;-77
2022/02/14 09:41:48;;;;;;;;;;;;;;;7.98;42.03;95588.03;4983616;28;19960;-77
2022/02/14 09:44:14;;;;;;;;;;;;;;;8.07;42.05;95591.94;4988035;28;19955;-77
2022/02/14 09:46:42;;;;;;;;;;;;;;;8.05;43.17;95580.94;4984842;28;20353;-76
2022/02/14 09:49:08;;;;;;;;;;;;;;;8.00;41.49;95578.19;4991433;28;19964;-76
2022/02/14 09:51:35;;;;;;;;;;;;;;;7.98;43.27;95572.38;4984806;28;20432;-76
2022/02/14 09:54:03;;;;;;;;;;;;;;;7.92;43.85;95576.69;4985891;28;19965;-76
2022/02/14 09:56:35;;;;;;;;;;;;;;;7.89;43.01;95583.13;4990400;28;19979;-76
2022/02/14 09:59:10;;;;;;;;;;;;;;;7.90;44.26;95576.13;4974360;28;19986;-77
2022/02/14 10:01:36;;;;;;;;;;;;;;;7.96;43.64;95577.03;4983034;28;19963;-77
2022/02/14 10:04:02;;;;;;;;;;;;;;;7.98;43.24;95582.81;4966418;28;19960;-77
2022/02/14 10:06:29;;;;;;;;;;;;;;;8.00;44.36;95578.19;4987788;28;20311;-77
2022/02/14 10:09:15;;;;;;;;;;;;;;;8.04;44.51;95571.50;4987966;28;19956;-77
2022/02/14 10:12:02;;;;;;;;;;;;;;;8.07;44.48;95578.91;4985492;28;19960;-77
2022/02/14 10:14:28;;;;;;;;;;;;;;;8.20;44.63;95570.06;4978635;28;20016;-77
2022/02/14 10:17:01;;;;;;;;;;;;;;;8.31;44.81;95577.13;4983042;28;19956;-77
2022/02/14 10:19:28;;;;;;;;;;;;;;;8.40;43.68;95569.75;4985200;28;19975;-77
2022/02/14 10:21:54;;;;;;;;;;;;;;;8.51;44.53;95577.63;4992223;28;19984;-77
2022/02/14 10:24:21;;;;;;;;;;;;;;;8.58;43.85;95561.06;4985274;28;19976;-77
2022/02/14 10:26:48;;;;;;;;;;;;;;;8.67;44.53;95564.91;4987118;28;19961;-77
2022/02/14 10:29:24;;;;;;;;;;;;;;;8.75;44.42;95575.03;4982683;28;19957;-77
2022/02/14 10:31:51;;;;;;;;;;;;;;;8.88;44.27;95577.44;4986666;28;19959;-77
2022/02/14 10:34:18;;;;;;;;;;;;;;;8.96;44.12;95576.28;4991047;28;19955;-77
2022/02/14 10:36:47;;;;;;;;;;;;;;;9.04;44.30;95570.69;4986871;28;19961;-77
2022/02/14 10:39:18;;;;;;;;;;;;;;;9.10;44.44;95577.63;4987354;28;19968;-77
2022/02/14 10:41:45;;;;;;;;;;;;;;;9.14;43.89;95573.53;4988598;28;19967;-77
2022/02/14 10:45:07;;;;;;;;;;;;;;;9.26;44.19;95573.53;4980927;28;19948;-77
2022/02/14 10:47:06;;;;;;;;;;;;;;;9.39;44.35;95566.44;4980387;28;19962;-77
2022/02/14 10:49:31;;;;;;;;;;;;;;;9.44;42.82;95561.28;4986616;28;19956;-77
2022/02/14 10:52:02;;;;;;;;;;;;;;;9.50;42.80;95570.84;4984132;28;19954;-77
2022/02/14 10:54:34;;;;;;;;;;;;;;;9.48;42.31;95571.06;4988362;28;19977;-77
2022/02/14 10:57:00;;;;;;;;;;;;;;;9.51;43.29;95567.19;4990905;28;19964;-77
2022/02/14 10:59:27;;;;;;;;;;;;;;;9.57;43.36;95557.63;4988193;28;19977;-77
2022/02/14 11:01:53;;;;;;;;;;;;;;;9.58;42.60;95551.38;4982906;28;19956;-77
2022/02/14 11:04:19;;;;;;;;;;;;;;;9.57;42.43;95557.63;4986280;28;20474;-77
2022/02/14 11:06:45;;;;;;;;;;;;;;;9.53;42.87;95554.66;4982784;28;20011;-77
2022/02/14 11:09:11;;;;;;;;;;;;;;;9.50;43.40;95550.69;4983693;28;19975;-77
2022/02/14 11:11:39;;;;;;;;;;;;;;;9.50;43.82;95553.31;4987158;28;19953;-77
2022/02/14 11:14:05;;;;;;;;;;;;;;;9.49;43.77;95551.72;4987875;28;19957;-77
2022/02/14 11:16:33;;;;;;;;;;;;;;;9.44;43.49;95546.38;4980574;28;19958;-77
2022/02/14 11:19:00;;;;;;;;;;;;;;;9.45;44.22;95545.38;4970586;28;19972;-77
2022/02/14 11:21:27;;;;;;;;;;;;;;;9.48;44.64;95551.97;4984414;28;20441;-77
2022/02/14 11:23:56;;;;;;;;;;;;;;;9.48;45.21;95544.91;4983097;28;20015;-77
2022/02/14 11:26:37;;;;;;;;;;;;;;;9.55;45.98;95537.72;4986226;28;19957;-77
2022/02/14 11:29:09;;;;;;;;;;;;;;;9.62;45.40;95536.78;4989274;28;20358;-77
2022/02/14 11:31:35;;;;;;;;;;;;;;;9.69;46.24;95532.19;4978474;28;19951;-77
2022/02/14 11:34:03;;;;;;;;;;;;;;;9.76;46.35;95519.75;4984786;28;19960;-77
2022/02/14 11:36:30;;;;;;;;;;;;;;;9.82;46.63;95521.41;4987155;28;20330;-77
2022/02/14 11:39:00;;;;;;;;;;;;;;;9.91;46.31;95516.59;4983411;28;19958;-77
2022/02/14 11:41:29;;;;;;;;;;;;;;;9.94;46.50;95519.53;4968016;28;19962;-77
2022/02/14 11:44:21;;;;;;;;;;;;;;;9.98;46.65;95513.84;4982483;28;19959;-77
2022/02/14 11:46:47;;;;;;;;;;;;;;;10.05;46.66;95514.47;4980489;28;20291;-76
2022/02/14 11:49:15;;;;;;;;;;;;;;;10.10;46.74;95514.53;4987580;28;20012;-76
2022/02/14 11:51:40;;;;;;;;;;;;;;;10.12;46.77;95505.44;4982595;28;20438;-78
2022/02/14 11:54:26;;;;;;;;;;;;;;;10.10;47.12;95497.03;4983725;28;19956;-77
2022/02/14 11:56:52;;;;;;;;;;;;;;;10.03;47.61;95506.06;4989323;28;19960;-77
2022/02/14 11:59:27;;;;;;;;;;;;;;;9.97;48.06;95502.56;4987381;28;20351;-77
2022/02/14 12:01:53;;;;;;;;;;;;;;;9.95;48.39;95494.94;4985491;28;19958;-77
2022/02/14 12:07:15;;;;;;;;;;;;;;;9.92;48.89;95498.03;4965628;28;19957;-77
2022/02/14 12:09:57;;;;;;;;;;;;;;;9.95;49.47;95496.75;4983579;28;19964;-77
2022/02/14 12:12:41;;;;;;;;;;;;;;;10.00;49.44;95509.94;4968710;28;19952;-77
2022/02/14 12:15:17;;;;;;;;;;;;;;;10.10;49.41;95504.06;5004757;28;19960;-77
2022/02/14 12:20:35;;;;;;;;;;;;;;;10.21;49.15;95510.28;4982183;28;19977;-77
2022/02/14 12:23:02;;;;;;;;;;;;;;;10.27;48.61;95510.13;4984717;28;19971;-77
2022/02/14 12:25:28;;;;;;;;;;;;;;;10.41;48.24;95509.81;4987161;28;19974;-77
2022/02/14 12:28:00;;;;;;;;;;;;;;;10.57;48.50;95503.78;4983328;28;19957;-77
2022/02/14 12:30:26;;;;;;;;;;;;;;;10.68;47.87;95500.25;4982666;28;20433;-77
2022/02/14 12:33:05;;;;;;;;;;;;;;;10.64;48.11;95488.66;4984554;28;19962;-77
2022/02/14 12:35:36;;;;;;;;;;;;;;;10.57;48.29;95503.78;4982304;28;19951;-77
2022/02/14 12:38:02;;;;;;;;;;;;;;;10.51;48.25;95484.53;4989254;28;19959;-77
2022/02/14 12:40:48;;;;;;;;;;;;;;;10.48;48.78;95489.50;4981261;28;20335;-77
2022/02/14 12:43:21;;;;;;;;;;;;;;;10.45;48.65;95482.09;4978347;28;20424;-77
2022/02/14 12:45:47;;;;;;;;;;;;;;;10.47;49.52;95491.31;4979821;28;19959;-77
2022/02/14 12:48:31;;;;;;;;;;;;;;;10.48;49.51;95486.88;4998771;28;19955;-77
2022/02/14 12:50:58;;;;;;;;;;;;;;;10.48;49.29;95485.03;4981941;28;19964;-77
2022/02/14 12:53:24;;;;;;;;;;;;;;;10.50;49.13;95471.72;4987637;28;20365;-77
2022/02/14 12:55:50;;;;;;;;;;;;;;;10.52;49.07;95472.22;4984787;28;19996;-77
2022/02/14 12:58:16;;;;;;;;;;;;;;;10.54;49.23;95473.59;4984201;28;20050;-77
2022/02/14 13:00:43;;;;;;;;;;;;;;;10.60;49.63;95468.41;4978315;28;19974;-77